sensor_id;sensor_type;location;lat;lon;timestamp;P1;durP1;ratioP1;P2;durP2;ratioP2
17606;SDS011;69222;52.242;20.980;2023-08-07T00:00:04;1.00;;;0.28;;
17606;SDS011;69222;52.242;20.980;2023-08-07T00:02:35;1.77;;;0.40;;
17606;SDS011;69222;52.242;20.980;2023-08-07T00:05:04;1.75;;;0.60;;
17606;SDS011;69222;52.242;20.980;2023-08-07T00:07:32;0.20;;;0.20;;
17606;SDS011;69222;52.242;20.980;2023-08-07T00:10:00;1.55;;;0.35;;
17606;SDS011;69222;52.242;20.980;2023-08-07T00:12:31;0.30;;;0.30;;
17606;SDS011;69222;52.242;20.980;2023-08-07T00:14:59;0.30;;;0.30;;
17606;SDS011;69222;52.242;20.980;2023-08-07T00:17:28;1.45;;;0.30;;
17606;SDS011;69222;52.242;20.980;2023-08-07T00:19:56;0.22;;;0.22;;
17606;SDS011;69222;52.242;20.980;2023-08-07T00:22:23;0.20;;;0.20;;
17606;SDS011;69222;52.242;20.980;2023-08-07T00:24:52;0.28;;;0.28;;
17606;SDS011;69222;52.242;20.980;2023-08-07T00:27:20;1.23;;;0.30;;
17606;SDS011;69222;52.242;20.980;2023-08-07T00:29:49;0.17;;;0.17;;
17606;SDS011;69222;52.242;20.980;2023-08-07T00:32:17;0.38;;;0.20;;
17606;SDS011;69222;52.242;20.980;2023-08-07T00:34:46;0.38;;;0.38;;
17606;SDS011;69222;52.242;20.980;2023-08-07T00:37:14;0.20;;;0.20;;
17606;SDS011;69222;52.242;20.980;2023-08-07T00:39:42;0.63;;;0.30;;
17606;SDS011;69222;52.242;20.980;2023-08-07T00:42:10;0.40;;;0.40;;
17606;SDS011;69222;52.242;20.980;2023-08-07T00:44:38;0.50;;;0.50;;
17606;SDS011;69222;52.242;20.980;2023-08-07T00:47:07;0.82;;;0.82;;
17606;SDS011;69222;52.242;20.980;2023-08-07T00:49:35;0.50;;;0.50;;
17606;SDS011;69222;52.242;20.980;2023-08-07T00:52:04;0.55;;;0.52;;
17606;SDS011;69222;52.242;20.980;2023-08-07T00:54:33;0.63;;;0.45;;
17606;SDS011;69222;52.242;20.980;2023-08-07T00:57:03;1.27;;;0.40;;
17606;SDS011;69222;52.242;20.980;2023-08-07T00:59:38;0.63;;;0.57;;
17606;SDS011;69222;52.242;20.980;2023-08-07T01:02:08;1.08;;;0.45;;
17606;SDS011;69222;52.242;20.980;2023-08-07T01:04:37;0.70;;;0.55;;
17606;SDS011;69222;52.242;20.980;2023-08-07T01:07:05;2.35;;;0.40;;
17606;SDS011;69222;52.242;20.980;2023-08-07T01:09:34;2.90;;;0.70;;
17606;SDS011;69222;52.242;20.980;2023-08-07T01:12:04;1.08;;;0.60;;
17606;SDS011;69222;52.242;20.980;2023-08-07T01:14:40;0.80;;;0.80;;
17606;SDS011;69222;52.242;20.980;2023-08-07T01:17:19;0.70;;;0.70;;
17606;SDS011;69222;52.242;20.980;2023-08-07T01:19:49;0.80;;;0.80;;
17606;SDS011;69222;52.242;20.980;2023-08-07T01:22:20;0.90;;;0.90;;
17606;SDS011;69222;52.242;20.980;2023-08-07T01:24:48;0.60;;;0.60;;
17606;SDS011;69222;52.242;20.980;2023-08-07T01:27:35;0.75;;;0.75;;
17606;SDS011;69222;52.242;20.980;2023-08-07T01:30:16;0.80;;;0.80;;
17606;SDS011;69222;52.242;20.980;2023-08-07T01:32:51;0.93;;;0.93;;
17606;SDS011;69222;52.242;20.980;2023-08-07T01:35:27;1.23;;;1.13;;
17606;SDS011;69222;52.242;20.980;2023-08-07T01:37:59;1.75;;;0.80;;
17606;SDS011;69222;52.242;20.980;2023-08-07T01:40:28;1.00;;;1.00;;
17606;SDS011;69222;52.242;20.980;2023-08-07T01:42:58;1.75;;;0.90;;
17606;SDS011;69222;52.242;20.980;2023-08-07T01:45:26;2.63;;;1.10;;
17606;SDS011;69222;52.242;20.980;2023-08-07T01:47:55;1.17;;;1.13;;
17606;SDS011;69222;52.242;20.980;2023-08-07T01:50:23;1.30;;;1.30;;
17606;SDS011;69222;52.242;20.980;2023-08-07T01:52:52;1.30;;;1.02;;
17606;SDS011;69222;52.242;20.980;2023-08-07T01:55:22;0.80;;;0.80;;
17606;SDS011;69222;52.242;20.980;2023-08-07T01:57:50;1.10;;;1.00;;
17606;SDS011;69222;52.242;20.980;2023-08-07T02:00:18;1.15;;;1.00;;
17606;SDS011;69222;52.242;20.980;2023-08-07T02:02:46;1.45;;;1.10;;
17606;SDS011;69222;52.242;20.980;2023-08-07T02:05:15;1.20;;;1.10;;
17606;SDS011;69222;52.242;20.980;2023-08-07T02:07:44;2.50;;;1.23;;
17606;SDS011;69222;52.242;20.980;2023-08-07T02:10:12;1.52;;;1.00;;
17606;SDS011;69222;52.242;20.980;2023-08-07T02:12:41;1.00;;;0.90;;
17606;SDS011;69222;52.242;20.980;2023-08-07T02:15:09;3.50;;;1.33;;
17606;SDS011;69222;52.242;20.980;2023-08-07T02:17:37;0.80;;;0.80;;
17606;SDS011;69222;52.242;20.980;2023-08-07T02:20:08;0.93;;;0.93;;
17606;SDS011;69222;52.242;20.980;2023-08-07T02:22:37;3.95;;;1.10;;
17606;SDS011;69222;52.242;20.980;2023-08-07T02:25:06;1.10;;;1.10;;
17606;SDS011;69222;52.242;20.980;2023-08-07T02:27:34;1.13;;;1.10;;
17606;SDS011;69222;52.242;20.980;2023-08-07T02:30:04;0.93;;;0.80;;
17606;SDS011;69222;52.242;20.980;2023-08-07T02:32:33;1.92;;;1.10;;
17606;SDS011;69222;52.242;20.980;2023-08-07T02:35:01;1.15;;;0.80;;
17606;SDS011;69222;52.242;20.980;2023-08-07T02:37:29;1.60;;;1.00;;
17606;SDS011;69222;52.242;20.980;2023-08-07T02:39:58;3.20;;;0.82;;
17606;SDS011;69222;52.242;20.980;2023-08-07T02:42:26;1.15;;;0.93;;
17606;SDS011;69222;52.242;20.980;2023-08-07T02:44:54;2.03;;;0.90;;
17606;SDS011;69222;52.242;20.980;2023-08-07T02:47:23;1.17;;;1.08;;
17606;SDS011;69222;52.242;20.980;2023-08-07T02:49:51;0.93;;;0.90;;
17606;SDS011;69222;52.242;20.980;2023-08-07T02:52:19;1.60;;;1.00;;
17606;SDS011;69222;52.242;20.980;2023-08-07T02:54:47;0.70;;;0.70;;
17606;SDS011;69222;52.242;20.980;2023-08-07T02:57:15;0.80;;;0.80;;
17606;SDS011;69222;52.242;20.980;2023-08-07T02:59:43;1.13;;;0.90;;
17606;SDS011;69222;52.242;20.980;2023-08-07T03:02:11;1.23;;;0.80;;
17606;SDS011;69222;52.242;20.980;2023-08-07T03:04:40;1.02;;;1.00;;
17606;SDS011;69222;52.242;20.980;2023-08-07T03:07:08;1.20;;;1.10;;
17606;SDS011;69222;52.242;20.980;2023-08-07T03:09:36;1.00;;;0.80;;
17606;SDS011;69222;52.242;20.980;2023-08-07T03:12:05;2.03;;;0.90;;
17606;SDS011;69222;52.242;20.980;2023-08-07T03:14:33;2.00;;;0.80;;
17606;SDS011;69222;52.242;20.980;2023-08-07T03:17:01;1.00;;;0.90;;
17606;SDS011;69222;52.242;20.980;2023-08-07T03:19:29;0.98;;;0.70;;
17606;SDS011;69222;52.242;20.980;2023-08-07T03:21:59;3.00;;;1.00;;
17606;SDS011;69222;52.242;20.980;2023-08-07T03:24:27;1.05;;;0.90;;
17606;SDS011;69222;52.242;20.980;2023-08-07T03:26:55;1.20;;;1.10;;
17606;SDS011;69222;52.242;20.980;2023-08-07T03:29:23;2.08;;;0.90;;
17606;SDS011;69222;52.242;20.980;2023-08-07T03:31:51;1.45;;;1.30;;
17606;SDS011;69222;52.242;20.980;2023-08-07T03:34:19;1.10;;;1.00;;
17606;SDS011;69222;52.242;20.980;2023-08-07T03:36:47;0.90;;;0.90;;
17606;SDS011;69222;52.242;20.980;2023-08-07T03:39:17;1.70;;;1.20;;
17606;SDS011;69222;52.242;20.980;2023-08-07T03:41:45;1.60;;;0.90;;
17606;SDS011;69222;52.242;20.980;2023-08-07T03:44:13;1.42;;;1.33;;
17606;SDS011;69222;52.242;20.980;2023-08-07T03:46:40;1.98;;;1.33;;
17606;SDS011;69222;52.242;20.980;2023-08-07T03:49:09;1.00;;;1.00;;
17606;SDS011;69222;52.242;20.980;2023-08-07T03:51:36;2.50;;;1.35;;
17606;SDS011;69222;52.242;20.980;2023-08-07T03:54:04;1.30;;;1.20;;
17606;SDS011;69222;52.242;20.980;2023-08-07T03:56:34;1.35;;;1.25;;
17606;SDS011;69222;52.242;20.980;2023-08-07T03:59:04;1.30;;;1.20;;
17606;SDS011;69222;52.242;20.980;2023-08-07T04:01:32;1.60;;;1.30;;
17606;SDS011;69222;52.242;20.980;2023-08-07T04:04:00;1.13;;;1.10;;
17606;SDS011;69222;52.242;20.980;2023-08-07T04:06:28;1.30;;;1.20;;
17606;SDS011;69222;52.242;20.980;2023-08-07T04:08:56;2.03;;;1.40;;
17606;SDS011;69222;52.242;20.980;2023-08-07T04:11:24;2.35;;;1.27;;
17606;SDS011;69222;52.242;20.980;2023-08-07T04:13:54;1.52;;;1.40;;
17606;SDS011;69222;52.242;20.980;2023-08-07T04:16:22;2.95;;;1.50;;
17606;SDS011;69222;52.242;20.980;2023-08-07T04:18:50;2.05;;;1.45;;
17606;SDS011;69222;52.242;20.980;2023-08-07T04:21:19;1.42;;;1.33;;
17606;SDS011;69222;52.242;20.980;2023-08-07T04:23:46;1.55;;;1.30;;
17606;SDS011;69222;52.242;20.980;2023-08-07T04:26:15;1.13;;;1.10;;
17606;SDS011;69222;52.242;20.980;2023-08-07T04:28:43;2.55;;;1.23;;
17606;SDS011;69222;52.242;20.980;2023-08-07T04:31:12;1.75;;;1.27;;
17606;SDS011;69222;52.242;20.980;2023-08-07T04:33:40;1.23;;;0.90;;
17606;SDS011;69222;52.242;20.980;2023-08-07T04:36:08;1.45;;;1.02;;
17606;SDS011;69222;52.242;20.980;2023-08-07T04:38:36;1.35;;;1.20;;
17606;SDS011;69222;52.242;20.980;2023-08-07T04:41:04;1.10;;;1.10;;
17606;SDS011;69222;52.242;20.980;2023-08-07T04:43:33;0.80;;;0.80;;
17606;SDS011;69222;52.242;20.980;2023-08-07T04:46:00;1.73;;;0.80;;
17606;SDS011;69222;52.242;20.980;2023-08-07T04:48:30;1.80;;;0.70;;
17606;SDS011;69222;52.242;20.980;2023-08-07T04:50:59;1.40;;;1.10;;
17606;SDS011;69222;52.242;20.980;2023-08-07T04:53:27;1.73;;;0.88;;
17606;SDS011;69222;52.242;20.980;2023-08-07T04:55:55;0.70;;;0.70;;
17606;SDS011;69222;52.242;20.980;2023-08-07T04:58:23;2.60;;;0.70;;
17606;SDS011;69222;52.242;20.980;2023-08-07T05:00:54;1.27;;;0.90;;
17606;SDS011;69222;52.242;20.980;2023-08-07T05:03:22;0.77;;;0.77;;
17606;SDS011;69222;52.242;20.980;2023-08-07T05:05:55;1.13;;;0.80;;
17606;SDS011;69222;52.242;20.980;2023-08-07T05:08:26;0.73;;;0.73;;
17606;SDS011;69222;52.242;20.980;2023-08-07T05:10:54;1.23;;;1.08;;
17606;SDS011;69222;52.242;20.980;2023-08-07T05:13:22;0.80;;;0.70;;
17606;SDS011;69222;52.242;20.980;2023-08-07T05:15:50;1.40;;;0.70;;
17606;SDS011;69222;52.242;20.980;2023-08-07T05:18:18;3.13;;;1.10;;
17606;SDS011;69222;52.242;20.980;2023-08-07T05:20:46;2.30;;;0.90;;
17606;SDS011;69222;52.242;20.980;2023-08-07T05:23:15;2.25;;;1.10;;
17606;SDS011;69222;52.242;20.980;2023-08-07T05:25:44;1.17;;;1.10;;
17606;SDS011;69222;52.242;20.980;2023-08-07T05:28:15;1.80;;;1.15;;
17606;SDS011;69222;52.242;20.980;2023-08-07T05:30:43;1.38;;;1.17;;
17606;SDS011;69222;52.242;20.980;2023-08-07T05:33:11;2.20;;;1.13;;
17606;SDS011;69222;52.242;20.980;2023-08-07T05:35:41;1.00;;;0.90;;
17606;SDS011;69222;52.242;20.980;2023-08-07T05:38:09;1.30;;;1.20;;
17606;SDS011;69222;52.242;20.980;2023-08-07T05:40:38;1.65;;;1.30;;
17606;SDS011;69222;52.242;20.980;2023-08-07T05:43:07;1.85;;;1.20;;
17606;SDS011;69222;52.242;20.980;2023-08-07T05:45:36;2.28;;;1.00;;
17606;SDS011;69222;52.242;20.980;2023-08-07T05:48:04;2.97;;;1.38;;
17606;SDS011;69222;52.242;20.980;2023-08-07T05:50:33;1.90;;;1.55;;
17606;SDS011;69222;52.242;20.980;2023-08-07T05:53:01;2.10;;;1.20;;
17606;SDS011;69222;52.242;20.980;2023-08-07T05:55:29;1.33;;;1.23;;
17606;SDS011;69222;52.242;20.980;2023-08-07T05:57:58;1.50;;;1.40;;
17606;SDS011;69222;52.242;20.980;2023-08-07T06:00:26;1.65;;;1.38;;
17606;SDS011;69222;52.242;20.980;2023-08-07T06:02:55;3.55;;;1.58;;
17606;SDS011;69222;52.242;20.980;2023-08-07T06:05:23;1.30;;;1.20;;
17606;SDS011;69222;52.242;20.980;2023-08-07T06:07:51;4.03;;;1.45;;
17606;SDS011;69222;52.242;20.980;2023-08-07T06:10:19;2.45;;;1.52;;
17606;SDS011;69222;52.242;20.980;2023-08-07T06:12:47;1.63;;;1.52;;
17606;SDS011;69222;52.242;20.980;2023-08-07T06:15:17;1.88;;;1.77;;
17606;SDS011;69222;52.242;20.980;2023-08-07T06:17:45;3.03;;;1.90;;
17606;SDS011;69222;52.242;20.980;2023-08-07T06:20:13;1.43;;;1.33;;
17606;SDS011;69222;52.242;20.980;2023-08-07T06:22:42;2.78;;;1.85;;
17606;SDS011;69222;52.242;20.980;2023-08-07T06:25:10;2.57;;;1.70;;
17606;SDS011;69222;52.242;20.980;2023-08-07T06:27:38;3.08;;;1.23;;
17606;SDS011;69222;52.242;20.980;2023-08-07T06:30:06;1.42;;;1.33;;
17606;SDS011;69222;52.242;20.980;2023-08-07T06:32:36;1.98;;;1.15;;
17606;SDS011;69222;52.242;20.980;2023-08-07T06:35:05;4.97;;;1.50;;
17606;SDS011;69222;52.242;20.980;2023-08-07T06:37:33;3.55;;;1.50;;
17606;SDS011;69222;52.242;20.980;2023-08-07T06:40:01;1.48;;;1.30;;
17606;SDS011;69222;52.242;20.980;2023-08-07T06:42:30;1.20;;;1.10;;
17606;SDS011;69222;52.242;20.980;2023-08-07T06:44:58;1.90;;;1.03;;
17606;SDS011;69222;52.242;20.980;2023-08-07T06:47:25;2.08;;;1.40;;
17606;SDS011;69222;52.242;20.980;2023-08-07T06:49:55;2.67;;;1.10;;
17606;SDS011;69222;52.242;20.980;2023-08-07T06:52:23;2.27;;;1.20;;
17606;SDS011;69222;52.242;20.980;2023-08-07T06:54:51;1.60;;;1.30;;
17606;SDS011;69222;52.242;20.980;2023-08-07T06:57:19;2.15;;;1.15;;
17606;SDS011;69222;52.242;20.980;2023-08-07T06:59:47;1.48;;;1.20;;
17606;SDS011;69222;52.242;20.980;2023-08-07T07:02:15;1.20;;;1.10;;
17606;SDS011;69222;52.242;20.980;2023-08-07T07:04:43;4.63;;;1.15;;
17606;SDS011;69222;52.242;20.980;2023-08-07T07:07:13;1.30;;;1.20;;
17606;SDS011;69222;52.242;20.980;2023-08-07T07:09:41;1.48;;;1.35;;
17606;SDS011;69222;52.242;20.980;2023-08-07T07:12:09;1.42;;;1.33;;
17606;SDS011;69222;52.242;20.980;2023-08-07T07:14:36;1.58;;;1.10;;
17606;SDS011;69222;52.242;20.980;2023-08-07T07:17:04;1.50;;;1.10;;
17606;SDS011;69222;52.242;20.980;2023-08-07T07:19:32;1.50;;;1.20;;
17606;SDS011;69222;52.242;20.980;2023-08-07T07:22:01;1.75;;;1.60;;
17606;SDS011;69222;52.242;20.980;2023-08-07T07:24:30;0.90;;;0.90;;
17606;SDS011;69222;52.242;20.980;2023-08-07T07:26:58;3.22;;;1.30;;
17606;SDS011;69222;52.242;20.980;2023-08-07T07:29:26;1.50;;;1.20;;
17606;SDS011;69222;52.242;20.980;2023-08-07T07:31:54;1.45;;;1.30;;
17606;SDS011;69222;52.242;20.980;2023-08-07T07:34:23;2.08;;;1.30;;
17606;SDS011;69222;52.242;20.980;2023-08-07T07:36:50;1.25;;;1.15;;
17606;SDS011;69222;52.242;20.980;2023-08-07T07:39:20;1.17;;;1.08;;
17606;SDS011;69222;52.242;20.980;2023-08-07T07:41:49;1.33;;;1.23;;
17606;SDS011;69222;52.242;20.980;2023-08-07T07:44:17;2.47;;;1.13;;
17606;SDS011;69222;52.242;20.980;2023-08-07T07:46:46;2.17;;;1.20;;
17606;SDS011;69222;52.242;20.980;2023-08-07T07:49:14;1.10;;;1.00;;
17606;SDS011;69222;52.242;20.980;2023-08-07T07:51:42;0.90;;;0.90;;
17606;SDS011;69222;52.242;20.980;2023-08-07T07:54:11;2.15;;;1.30;;
17606;SDS011;69222;52.242;20.980;2023-08-07T07:56:41;1.05;;;1.05;;
17606;SDS011;69222;52.242;20.980;2023-08-07T07:59:11;1.60;;;1.17;;
17606;SDS011;69222;52.242;20.980;2023-08-07T08:01:40;2.25;;;0.93;;
17606;SDS011;69222;52.242;20.980;2023-08-07T08:04:07;3.42;;;1.40;;
17606;SDS011;69222;52.242;20.980;2023-08-07T08:06:37;2.80;;;1.02;;
17606;SDS011;69222;52.242;20.980;2023-08-07T08:09:05;1.52;;;1.20;;
17606;SDS011;69222;52.242;20.980;2023-08-07T08:11:36;2.63;;;1.50;;
17606;SDS011;69222;52.242;20.980;2023-08-07T08:14:04;2.08;;;1.25;;
17606;SDS011;69222;52.242;20.980;2023-08-07T08:16:33;2.08;;;1.23;;
17606;SDS011;69222;52.242;20.980;2023-08-07T08:19:01;1.83;;;1.20;;
17606;SDS011;69222;52.242;20.980;2023-08-07T08:21:30;0.93;;;0.90;;
17606;SDS011;69222;52.242;20.980;2023-08-07T08:23:58;1.45;;;1.10;;
17606;SDS011;69222;52.242;20.980;2023-08-07T08:26:26;3.45;;;1.17;;
17606;SDS011;69222;52.242;20.980;2023-08-07T08:28:54;2.08;;;1.15;;
17606;SDS011;69222;52.242;20.980;2023-08-07T08:31:22;1.58;;;1.25;;
17606;SDS011;69222;52.242;20.980;2023-08-07T08:33:52;1.30;;;1.20;;
17606;SDS011;69222;52.242;20.980;2023-08-07T08:36:20;1.33;;;1.23;;
17606;SDS011;69222;52.242;20.980;2023-08-07T08:38:48;1.30;;;1.20;;
17606;SDS011;69222;52.242;20.980;2023-08-07T08:41:18;1.60;;;1.27;;
17606;SDS011;69222;52.242;20.980;2023-08-07T08:43:48;2.85;;;1.17;;
17606;SDS011;69222;52.242;20.980;2023-08-07T08:46:19;3.13;;;1.30;;
17606;SDS011;69222;52.242;20.980;2023-08-07T08:48:50;1.30;;;1.20;;
17606;SDS011;69222;52.242;20.980;2023-08-07T08:51:24;1.30;;;1.17;;
17606;SDS011;69222;52.242;20.980;2023-08-07T08:53:53;2.00;;;1.20;;
17606;SDS011;69222;52.242;20.980;2023-08-07T08:56:23;1.20;;;1.10;;
17606;SDS011;69222;52.242;20.980;2023-08-07T08:58:51;1.35;;;0.88;;
17606;SDS011;69222;52.242;20.980;2023-08-07T09:01:20;2.50;;;1.35;;
17606;SDS011;69222;52.242;20.980;2023-08-07T09:03:54;2.65;;;1.30;;
17606;SDS011;69222;52.242;20.980;2023-08-07T09:06:23;1.95;;;1.30;;
17606;SDS011;69222;52.242;20.980;2023-08-07T09:08:54;3.70;;;1.00;;
17606;SDS011;69222;52.242;20.980;2023-08-07T09:11:25;1.05;;;0.90;;
17606;SDS011;69222;52.242;20.980;2023-08-07T09:13:53;1.00;;;0.90;;
17606;SDS011;69222;52.242;20.980;2023-08-07T09:16:24;0.80;;;0.70;;
17606;SDS011;69222;52.242;20.980;2023-08-07T09:18:56;1.33;;;1.05;;
17606;SDS011;69222;52.242;20.980;2023-08-07T09:21:24;1.08;;;0.70;;
17606;SDS011;69222;52.242;20.980;2023-08-07T09:23:53;2.15;;;0.80;;
17606;SDS011;69222;52.242;20.980;2023-08-07T09:26:22;1.15;;;0.80;;
17606;SDS011;69222;52.242;20.980;2023-08-07T09:28:51;0.60;;;0.60;;
17606;SDS011;69222;52.242;20.980;2023-08-07T09:31:20;1.00;;;0.73;;
17606;SDS011;69222;52.242;20.980;2023-08-07T09:33:48;1.38;;;0.70;;
17606;SDS011;69222;52.242;20.980;2023-08-07T09:36:18;2.30;;;0.90;;
17606;SDS011;69222;52.242;20.980;2023-08-07T09:38:49;1.05;;;0.95;;
17606;SDS011;69222;52.242;20.980;2023-08-07T09:41:18;2.47;;;0.90;;
17606;SDS011;69222;52.242;20.980;2023-08-07T09:43:46;0.88;;;0.88;;
17606;SDS011;69222;52.242;20.980;2023-08-07T09:46:15;1.20;;;0.85;;
17606;SDS011;69222;52.242;20.980;2023-08-07T09:48:45;2.95;;;0.93;;
17606;SDS011;69222;52.242;20.980;2023-08-07T09:51:13;6.07;;;1.08;;
17606;SDS011;69222;52.242;20.980;2023-08-07T09:53:43;3.47;;;0.70;;
17606;SDS011;69222;52.242;20.980;2023-08-07T09:56:11;2.00;;;0.60;;
17606;SDS011;69222;52.242;20.980;2023-08-07T09:58:43;4.03;;;0.75;;
17606;SDS011;69222;52.242;20.980;2023-08-07T10:01:15;1.23;;;0.82;;
17606;SDS011;69222;52.242;20.980;2023-08-07T10:03:45;1.52;;;0.80;;
17606;SDS011;69222;52.242;20.980;2023-08-07T10:06:14;2.33;;;0.60;;
17606;SDS011;69222;52.242;20.980;2023-08-07T10:08:44;0.88;;;0.80;;
17606;SDS011;69222;52.242;20.980;2023-08-07T10:11:13;2.10;;;0.68;;
17606;SDS011;69222;52.242;20.980;2023-08-07T10:13:44;1.63;;;0.80;;
17606;SDS011;69222;52.242;20.980;2023-08-07T10:16:12;2.03;;;0.70;;
17606;SDS011;69222;52.242;20.980;2023-08-07T10:18:41;1.80;;;0.70;;
17606;SDS011;69222;52.242;20.980;2023-08-07T10:21:09;1.60;;;0.60;;
17606;SDS011;69222;52.242;20.980;2023-08-07T10:23:38;0.70;;;0.60;;
17606;SDS011;69222;52.242;20.980;2023-08-07T10:26:08;2.13;;;0.70;;
17606;SDS011;69222;52.242;20.980;2023-08-07T10:28:39;1.08;;;0.88;;
17606;SDS011;69222;52.242;20.980;2023-08-07T10:31:08;3.22;;;0.90;;
17606;SDS011;69222;52.242;20.980;2023-08-07T10:33:38;0.57;;;0.50;;
17606;SDS011;69222;52.242;20.980;2023-08-07T10:36:08;0.95;;;0.75;;
17606;SDS011;69222;52.242;20.980;2023-08-07T10:38:37;0.93;;;0.70;;
17606;SDS011;69222;52.242;20.980;2023-08-07T10:41:06;2.58;;;0.73;;
17606;SDS011;69222;52.242;20.980;2023-08-07T10:43:40;1.50;;;1.17;;
17606;SDS011;69222;52.242;20.980;2023-08-07T10:46:10;1.23;;;0.70;;
17606;SDS011;69222;52.242;20.980;2023-08-07T10:48:40;1.63;;;0.65;;
17606;SDS011;69222;52.242;20.980;2023-08-07T10:51:12;0.80;;;0.80;;
17606;SDS011;69222;52.242;20.980;2023-08-07T10:53:41;0.93;;;0.80;;
17606;SDS011;69222;52.242;20.980;2023-08-07T10:56:15;0.80;;;0.80;;
17606;SDS011;69222;52.242;20.980;2023-08-07T10:58:49;1.13;;;0.60;;
17606;SDS011;69222;52.242;20.980;2023-08-07T11:01:22;0.60;;;0.60;;
17606;SDS011;69222;52.242;20.980;2023-08-07T11:03:55;0.70;;;0.70;;
17606;SDS011;69222;52.242;20.980;2023-08-07T11:06:25;0.80;;;0.80;;
17606;SDS011;69222;52.242;20.980;2023-08-07T11:08:54;1.40;;;0.88;;
17606;SDS011;69222;52.242;20.980;2023-08-07T11:11:22;1.70;;;1.05;;
17606;SDS011;69222;52.242;20.980;2023-08-07T11:13:52;1.42;;;1.08;;
17606;SDS011;69222;52.242;20.980;2023-08-07T11:16:20;3.22;;;0.80;;
17606;SDS011;69222;52.242;20.980;2023-08-07T11:18:48;0.90;;;0.90;;
17606;SDS011;69222;52.242;20.980;2023-08-07T11:21:17;0.88;;;0.68;;
17606;SDS011;69222;52.242;20.980;2023-08-07T11:23:46;2.05;;;0.70;;
17606;SDS011;69222;52.242;20.980;2023-08-07T11:26:14;1.30;;;0.70;;
17606;SDS011;69222;52.242;20.980;2023-08-07T11:28:43;2.08;;;0.60;;
17606;SDS011;69222;52.242;20.980;2023-08-07T11:31:13;0.70;;;0.70;;
17606;SDS011;69222;52.242;20.980;2023-08-07T11:33:41;1.55;;;0.70;;
17606;SDS011;69222;52.242;20.980;2023-08-07T11:36:10;0.60;;;0.60;;
17606;SDS011;69222;52.242;20.980;2023-08-07T11:38:39;1.30;;;0.80;;
17606;SDS011;69222;52.242;20.980;2023-08-07T11:41:09;1.45;;;0.70;;
17606;SDS011;69222;52.242;20.980;2023-08-07T11:43:38;1.00;;;0.90;;
17606;SDS011;69222;52.242;20.980;2023-08-07T11:46:08;2.20;;;0.98;;
17606;SDS011;69222;52.242;20.980;2023-08-07T11:48:39;0.95;;;0.80;;
17606;SDS011;69222;52.242;20.980;2023-08-07T11:51:08;0.80;;;0.80;;
17606;SDS011;69222;52.242;20.980;2023-08-07T11:53:37;1.20;;;0.90;;
17606;SDS011;69222;52.242;20.980;2023-08-07T11:56:06;0.77;;;0.63;;
17606;SDS011;69222;52.242;20.980;2023-08-07T11:58:36;1.38;;;1.00;;
17606;SDS011;69222;52.242;20.980;2023-08-07T12:01:05;1.10;;;0.75;;
17606;SDS011;69222;52.242;20.980;2023-08-07T12:03:35;3.83;;;1.00;;
17606;SDS011;69222;52.242;20.980;2023-08-07T12:06:08;2.13;;;0.90;;
17606;SDS011;69222;52.242;20.980;2023-08-07T12:08:37;2.33;;;0.80;;
17606;SDS011;69222;52.242;20.980;2023-08-07T12:11:07;3.00;;;1.20;;
17606;SDS011;69222;52.242;20.980;2023-08-07T12:13:36;0.82;;;0.80;;
17606;SDS011;69222;52.242;20.980;2023-08-07T12:16:05;1.75;;;1.00;;
17606;SDS011;69222;52.242;20.980;2023-08-07T12:18:35;2.10;;;1.10;;
17606;SDS011;69222;52.242;20.980;2023-08-07T12:21:07;1.08;;;0.75;;
17606;SDS011;69222;52.242;20.980;2023-08-07T12:23:36;0.88;;;0.80;;
17606;SDS011;69222;52.242;20.980;2023-08-07T12:26:05;1.92;;;0.82;;
17606;SDS011;69222;52.242;20.980;2023-08-07T12:28:34;1.20;;;0.80;;
17606;SDS011;69222;52.242;20.980;2023-08-07T12:31:02;2.85;;;0.70;;
17606;SDS011;69222;52.242;20.980;2023-08-07T12:33:31;0.90;;;0.90;;
17606;SDS011;69222;52.242;20.980;2023-08-07T12:35:59;1.75;;;1.00;;
17606;SDS011;69222;52.242;20.980;2023-08-07T12:38:29;1.55;;;0.80;;
17606;SDS011;69222;52.242;20.980;2023-08-07T12:40:57;1.30;;;1.00;;
17606;SDS011;69222;52.242;20.980;2023-08-07T12:43:26;1.73;;;1.00;;
17606;SDS011;69222;52.242;20.980;2023-08-07T12:45:54;0.85;;;0.80;;
17606;SDS011;69222;52.242;20.980;2023-08-07T12:48:42;3.75;;;1.10;;
17606;SDS011;69222;52.242;20.980;2023-08-07T12:51:09;2.05;;;0.95;;
17606;SDS011;69222;52.242;20.980;2023-08-07T12:53:39;3.80;;;1.30;;
17606;SDS011;69222;52.242;20.980;2023-08-07T12:56:07;1.00;;;0.80;;
17606;SDS011;69222;52.242;20.980;2023-08-07T12:58:35;2.97;;;0.90;;
17606;SDS011;69222;52.242;20.980;2023-08-07T13:01:04;2.78;;;1.33;;
17606;SDS011;69222;52.242;20.980;2023-08-07T13:03:32;1.63;;;1.13;;
17606;SDS011;69222;52.242;20.980;2023-08-07T13:06:00;1.38;;;1.00;;
17606;SDS011;69222;52.242;20.980;2023-08-07T13:08:32;1.30;;;1.20;;
17606;SDS011;69222;52.242;20.980;2023-08-07T13:11:02;1.30;;;1.20;;
17606;SDS011;69222;52.242;20.980;2023-08-07T13:13:31;1.42;;;1.25;;
17606;SDS011;69222;52.242;20.980;2023-08-07T13:15:59;1.75;;;1.27;;
17606;SDS011;69222;52.242;20.980;2023-08-07T13:18:27;3.30;;;1.10;;
17606;SDS011;69222;52.242;20.980;2023-08-07T13:20:55;1.58;;;1.00;;
17606;SDS011;69222;52.242;20.980;2023-08-07T13:23:24;1.45;;;1.23;;
17606;SDS011;69222;52.242;20.980;2023-08-07T13:25:52;1.17;;;1.00;;
17606;SDS011;69222;52.242;20.980;2023-08-07T13:28:21;3.08;;;0.98;;
17606;SDS011;69222;52.242;20.980;2023-08-07T13:30:49;2.17;;;0.90;;
17606;SDS011;69222;52.242;20.980;2023-08-07T13:33:18;1.95;;;1.15;;
17606;SDS011;69222;52.242;20.980;2023-08-07T13:35:46;1.80;;;1.08;;
17606;SDS011;69222;52.242;20.980;2023-08-07T13:38:14;2.90;;;1.05;;
17606;SDS011;69222;52.242;20.980;2023-08-07T13:40:45;2.22;;;1.08;;
17606;SDS011;69222;52.242;20.980;2023-08-07T13:43:13;2.00;;;1.45;;
17606;SDS011;69222;52.242;20.980;2023-08-07T13:45:42;2.80;;;1.10;;
17606;SDS011;69222;52.242;20.980;2023-08-07T13:48:10;3.03;;;1.27;;
17606;SDS011;69222;52.242;20.980;2023-08-07T13:50:38;1.30;;;1.10;;
17606;SDS011;69222;52.242;20.980;2023-08-07T13:53:07;1.40;;;1.00;;
17606;SDS011;69222;52.242;20.980;2023-08-07T13:55:41;1.40;;;1.30;;
17606;SDS011;69222;52.242;20.980;2023-08-07T13:58:10;0.80;;;0.80;;
17606;SDS011;69222;52.242;20.980;2023-08-07T14:00:38;2.20;;;1.02;;
17606;SDS011;69222;52.242;20.980;2023-08-07T14:03:09;2.53;;;1.35;;
17606;SDS011;69222;52.242;20.980;2023-08-07T14:05:39;4.20;;;1.30;;
17606;SDS011;69222;52.242;20.980;2023-08-07T14:08:07;2.80;;;1.20;;
17606;SDS011;69222;52.242;20.980;2023-08-07T14:10:37;1.95;;;1.20;;
17606;SDS011;69222;52.242;20.980;2023-08-07T14:13:08;1.27;;;1.00;;
17606;SDS011;69222;52.242;20.980;2023-08-07T14:15:38;3.55;;;1.27;;
17606;SDS011;69222;52.242;20.980;2023-08-07T14:18:06;2.20;;;1.35;;
17606;SDS011;69222;52.242;20.980;2023-08-07T14:20:36;1.58;;;1.17;;
17606;SDS011;69222;52.242;20.980;2023-08-07T14:23:21;2.28;;;1.20;;
17606;SDS011;69222;52.242;20.980;2023-08-07T14:25:49;1.95;;;1.08;;
17606;SDS011;69222;52.242;20.980;2023-08-07T14:28:19;1.52;;;1.27;;
17606;SDS011;69222;52.242;20.980;2023-08-07T14:30:47;1.55;;;1.45;;
17606;SDS011;69222;52.242;20.980;2023-08-07T14:33:15;1.20;;;1.10;;
17606;SDS011;69222;52.242;20.980;2023-08-07T14:35:45;2.08;;;1.40;;
17606;SDS011;69222;52.242;20.980;2023-08-07T14:38:13;2.65;;;1.20;;
17606;SDS011;69222;52.242;20.980;2023-08-07T14:40:42;3.45;;;1.58;;
17606;SDS011;69222;52.242;20.980;2023-08-07T14:43:10;1.60;;;1.20;;